sensor_id;sensor_type;location;lat;lon;timestamp;P1;durP1;ratioP1;P2;durP2;ratioP2
64520;SDS011;50896;46.714;17.322;2024-02-15T00:00:57;14.73;;;8.50;;
64520;SDS011;50896;46.714;17.322;2024-02-15T00:03:26;13.80;;;8.25;;
64520;SDS011;50896;46.714;17.322;2024-02-15T00:05:53;12.70;;;7.50;;
64520;SDS011;50896;46.714;17.322;2024-02-15T00:08:20;12.35;;;7.38;;
64520;SDS011;50896;46.714;17.322;2024-02-15T00:10:47;14.25;;;7.97;;
64520;SDS011;50896;46.714;17.322;2024-02-15T00:13:14;16.00;;;8.07;;
64520;SDS011;50896;46.714;17.322;2024-02-15T00:15:41;11.68;;;8.18;;
64520;SDS011;50896;46.714;17.322;2024-02-15T00:18:08;14.18;;;7.90;;
64520;SDS011;50896;46.714;17.322;2024-02-15T00:20:35;11.15;;;7.15;;
64520;SDS011;50896;46.714;17.322;2024-02-15T00:23:02;11.13;;;7.10;;
64520;SDS011;50896;46.714;17.322;2024-02-15T00:25:29;13.50;;;7.80;;
64520;SDS011;50896;46.714;17.322;2024-02-15T00:27:57;14.40;;;7.97;;
64520;SDS011;50896;46.714;17.322;2024-02-15T00:30:26;14.35;;;8.05;;
64520;SDS011;50896;46.714;17.322;2024-02-15T00:32:53;10.70;;;7.13;;
64520;SDS011;50896;46.714;17.322;2024-02-15T00:35:21;13.02;;;7.32;;
64520;SDS011;50896;46.714;17.322;2024-02-15T00:37:48;10.52;;;6.85;;
64520;SDS011;50896;46.714;17.322;2024-02-15T00:40:16;11.52;;;6.63;;
64520;SDS011;50896;46.714;17.322;2024-02-15T00:42:43;13.25;;;7.57;;
64520;SDS011;50896;46.714;17.322;2024-02-15T00:45:10;13.48;;;7.95;;
64520;SDS011;50896;46.714;17.322;2024-02-15T00:47:38;12.90;;;7.47;;
64520;SDS011;50896;46.714;17.322;2024-02-15T00:50:05;11.65;;;6.90;;
64520;SDS011;50896;46.714;17.322;2024-02-15T00:52:32;15.40;;;7.50;;
64520;SDS011;50896;46.714;17.322;2024-02-15T00:55:00;14.18;;;7.63;;
64520;SDS011;50896;46.714;17.322;2024-02-15T00:57:27;12.95;;;7.20;;
64520;SDS011;50896;46.714;17.322;2024-02-15T00:59:53;10.27;;;6.93;;
64520;SDS011;50896;46.714;17.322;2024-02-15T01:02:20;15.00;;;7.13;;
64520;SDS011;50896;46.714;17.322;2024-02-15T01:04:48;12.95;;;6.97;;
64520;SDS011;50896;46.714;17.322;2024-02-15T01:07:15;13.90;;;7.38;;
64520;SDS011;50896;46.714;17.322;2024-02-15T01:09:42;13.10;;;7.75;;
64520;SDS011;50896;46.714;17.322;2024-02-15T01:12:08;11.50;;;7.72;;
64520;SDS011;50896;46.714;17.322;2024-02-15T01:14:37;12.18;;;8.00;;
64520;SDS011;50896;46.714;17.322;2024-02-15T01:17:04;11.13;;;7.15;;
64520;SDS011;50896;46.714;17.322;2024-02-15T01:19:30;12.82;;;7.50;;
64520;SDS011;50896;46.714;17.322;2024-02-15T01:21:57;15.07;;;7.45;;
64520;SDS011;50896;46.714;17.322;2024-02-15T01:24:26;14.18;;;8.35;;
64520;SDS011;50896;46.714;17.322;2024-02-15T01:26:53;13.68;;;8.15;;
64520;SDS011;50896;46.714;17.322;2024-02-15T01:29:20;15.10;;;7.97;;
64520;SDS011;50896;46.714;17.322;2024-02-15T01:31:47;13.55;;;7.97;;
64520;SDS011;50896;46.714;17.322;2024-02-15T01:34:15;13.82;;;7.47;;
64520;SDS011;50896;46.714;17.322;2024-02-15T01:36:42;15.38;;;8.30;;
64520;SDS011;50896;46.714;17.322;2024-02-15T01:39:09;14.07;;;7.55;;
64520;SDS011;50896;46.714;17.322;2024-02-15T01:41:36;13.02;;;7.53;;
64520;SDS011;50896;46.714;17.322;2024-02-15T01:44:03;15.93;;;8.00;;
64520;SDS011;50896;46.714;17.322;2024-02-15T01:46:30;11.40;;;7.43;;
64520;SDS011;50896;46.714;17.322;2024-02-15T01:48:58;14.70;;;7.57;;
64520;SDS011;50896;46.714;17.322;2024-02-15T01:51:25;16.15;;;7.60;;
64520;SDS011;50896;46.714;17.322;2024-02-15T01:53:53;11.18;;;6.90;;
64520;SDS011;50896;46.714;17.322;2024-02-15T01:56:22;12.27;;;7.25;;
64520;SDS011;50896;46.714;17.322;2024-02-15T02:01:18;11.38;;;6.68;;
64520;SDS011;50896;46.714;17.322;2024-02-15T02:03:45;12.43;;;7.15;;
64520;SDS011;50896;46.714;17.322;2024-02-15T02:06:12;13.70;;;7.68;;
64520;SDS011;50896;46.714;17.322;2024-02-15T02:08:40;11.38;;;7.05;;
64520;SDS011;50896;46.714;17.322;2024-02-15T02:11:07;11.63;;;7.15;;
64520;SDS011;50896;46.714;17.322;2024-02-15T02:13:34;13.95;;;7.68;;
64520;SDS011;50896;46.714;17.322;2024-02-15T02:16:01;11.93;;;7.13;;
64520;SDS011;50896;46.714;17.322;2024-02-15T02:18:28;13.57;;;7.55;;
64520;SDS011;50896;46.714;17.322;2024-02-15T02:20:55;11.07;;;6.93;;
64520;SDS011;50896;46.714;17.322;2024-02-15T02:23:25;10.40;;;7.50;;
64520;SDS011;50896;46.714;17.322;2024-02-15T02:25:54;12.18;;;6.78;;
64520;SDS011;50896;46.714;17.322;2024-02-15T02:28:22;12.35;;;6.47;;
64520;SDS011;50896;46.714;17.322;2024-02-15T02:30:49;13.70;;;6.93;;
64520;SDS011;50896;46.714;17.322;2024-02-15T02:33:16;13.55;;;6.88;;
64520;SDS011;50896;46.714;17.322;2024-02-15T02:35:49;11.05;;;6.82;;
64520;SDS011;50896;46.714;17.322;2024-02-15T02:38:16;11.90;;;6.70;;
64520;SDS011;50896;46.714;17.322;2024-02-15T02:40:43;10.90;;;6.95;;
64520;SDS011;50896;46.714;17.322;2024-02-15T02:43:10;13.65;;;6.82;;
64520;SDS011;50896;46.714;17.322;2024-02-15T02:45:38;9.45;;;6.20;;
64520;SDS011;50896;46.714;17.322;2024-02-15T02:48:04;10.82;;;6.60;;
64520;SDS011;50896;46.714;17.322;2024-02-15T02:50:32;10.95;;;6.82;;
64520;SDS011;50896;46.714;17.322;2024-02-15T02:52:59;11.25;;;6.47;;
64520;SDS011;50896;46.714;17.322;2024-02-15T02:55:26;10.27;;;5.95;;
64520;SDS011;50896;46.714;17.322;2024-02-15T02:57:54;11.40;;;6.10;;
64520;SDS011;50896;46.714;17.322;2024-02-15T03:00:24;11.35;;;6.03;;
64520;SDS011;50896;46.714;17.322;2024-02-15T03:02:50;10.00;;;6.05;;
64520;SDS011;50896;46.714;17.322;2024-02-15T03:05:17;9.27;;;6.00;;
64520;SDS011;50896;46.714;17.322;2024-02-15T03:07:48;8.23;;;5.85;;
64520;SDS011;50896;46.714;17.322;2024-02-15T03:10:16;9.38;;;6.10;;
64520;SDS011;50896;46.714;17.322;2024-02-15T03:12:43;11.80;;;5.68;;
64520;SDS011;50896;46.714;17.322;2024-02-15T03:15:15;12.48;;;5.80;;
64520;SDS011;50896;46.714;17.322;2024-02-15T03:17:45;9.75;;;5.93;;
64520;SDS011;50896;46.714;17.322;2024-02-15T03:20:13;15.00;;;6.35;;
64520;SDS011;50896;46.714;17.322;2024-02-15T03:25:20;15.45;;;6.43;;
64520;SDS011;50896;46.714;17.322;2024-02-15T03:27:50;11.70;;;5.40;;
64520;SDS011;50896;46.714;17.322;2024-02-15T03:30:22;9.95;;;5.38;;
64520;SDS011;50896;46.714;17.322;2024-02-15T03:32:50;9.25;;;5.75;;
64520;SDS011;50896;46.714;17.322;2024-02-15T03:35:18;8.02;;;5.50;;
64520;SDS011;50896;46.714;17.322;2024-02-15T03:37:46;7.00;;;4.93;;
64520;SDS011;50896;46.714;17.322;2024-02-15T03:40:13;10.57;;;5.80;;
64520;SDS011;50896;46.714;17.322;2024-02-15T03:42:40;9.43;;;5.70;;
64520;SDS011;50896;46.714;17.322;2024-02-15T03:45:08;9.85;;;6.25;;
64520;SDS011;50896;46.714;17.322;2024-02-15T03:47:35;9.20;;;5.25;;
64520;SDS011;50896;46.714;17.322;2024-02-15T03:50:03;9.77;;;5.40;;
64520;SDS011;50896;46.714;17.322;2024-02-15T03:52:37;8.45;;;5.47;;
64520;SDS011;50896;46.714;17.322;2024-02-15T03:55:05;8.80;;;5.35;;
64520;SDS011;50896;46.714;17.322;2024-02-15T03:57:34;9.70;;;5.80;;
64520;SDS011;50896;46.714;17.322;2024-02-15T04:00:01;10.02;;;6.15;;
64520;SDS011;50896;46.714;17.322;2024-02-15T04:02:34;12.45;;;6.43;;
64520;SDS011;50896;46.714;17.322;2024-02-15T04:05:02;9.95;;;5.50;;
64520;SDS011;50896;46.714;17.322;2024-02-15T04:07:31;11.55;;;6.25;;
64520;SDS011;50896;46.714;17.322;2024-02-15T04:09:58;9.13;;;5.38;;
64520;SDS011;50896;46.714;17.322;2024-02-15T04:12:27;8.07;;;5.25;;
64520;SDS011;50896;46.714;17.322;2024-02-15T04:14:54;11.70;;;5.82;;
64520;SDS011;50896;46.714;17.322;2024-02-15T04:17:22;10.90;;;6.00;;
64520;SDS011;50896;46.714;17.322;2024-02-15T04:19:50;10.52;;;6.05;;
64520;SDS011;50896;46.714;17.322;2024-02-15T04:22:18;9.02;;;5.53;;
64520;SDS011;50896;46.714;17.322;2024-02-15T04:24:44;9.73;;;5.53;;
64520;SDS011;50896;46.714;17.322;2024-02-15T04:27:12;9.73;;;5.38;;
64520;SDS011;50896;46.714;17.322;2024-02-15T04:29:40;10.40;;;6.10;;
64520;SDS011;50896;46.714;17.322;2024-02-15T04:32:12;11.52;;;5.78;;
64520;SDS011;50896;46.714;17.322;2024-02-15T04:34:40;9.77;;;5.68;;
64520;SDS011;50896;46.714;17.322;2024-02-15T04:37:07;8.30;;;5.35;;
64520;SDS011;50896;46.714;17.322;2024-02-15T04:39:34;10.93;;;5.70;;
64520;SDS011;50896;46.714;17.322;2024-02-15T04:42:02;11.05;;;5.80;;
64520;SDS011;50896;46.714;17.322;2024-02-15T04:44:32;10.68;;;5.95;;
64520;SDS011;50896;46.714;17.322;2024-02-15T04:47:02;9.93;;;5.85;;
64520;SDS011;50896;46.714;17.322;2024-02-15T04:49:32;8.20;;;5.47;;
64520;SDS011;50896;46.714;17.322;2024-02-15T04:51:59;9.75;;;6.07;;
64520;SDS011;50896;46.714;17.322;2024-02-15T04:54:30;10.82;;;6.05;;
64520;SDS011;50896;46.714;17.322;2024-02-15T04:56:59;11.13;;;6.45;;
64520;SDS011;50896;46.714;17.322;2024-02-15T04:59:27;9.13;;;5.70;;
64520;SDS011;50896;46.714;17.322;2024-02-15T05:01:55;12.45;;;6.18;;
64520;SDS011;50896;46.714;17.322;2024-02-15T05:04:23;11.15;;;6.32;;
64520;SDS011;50896;46.714;17.322;2024-02-15T05:06:51;9.68;;;6.10;;
64520;SDS011;50896;46.714;17.322;2024-02-15T05:09:19;9.10;;;6.40;;
64520;SDS011;50896;46.714;17.322;2024-02-15T05:11:46;10.77;;;5.97;;
64520;SDS011;50896;46.714;17.322;2024-02-15T05:14:15;9.00;;;5.80;;
64520;SDS011;50896;46.714;17.322;2024-02-15T05:16:49;8.38;;;6.13;;
64520;SDS011;50896;46.714;17.322;2024-02-15T05:19:16;10.30;;;6.68;;
64520;SDS011;50896;46.714;17.322;2024-02-15T05:21:44;10.70;;;6.47;;
64520;SDS011;50896;46.714;17.322;2024-02-15T05:24:16;10.73;;;6.22;;
64520;SDS011;50896;46.714;17.322;2024-02-15T05:26:44;9.70;;;6.38;;
64520;SDS011;50896;46.714;17.322;2024-02-15T05:29:19;13.00;;;6.07;;
64520;SDS011;50896;46.714;17.322;2024-02-15T05:31:47;9.55;;;6.32;;
64520;SDS011;50896;46.714;17.322;2024-02-15T05:34:16;10.70;;;6.68;;
64520;SDS011;50896;46.714;17.322;2024-02-15T05:36:44;9.45;;;5.75;;
64520;SDS011;50896;46.714;17.322;2024-02-15T05:39:11;11.82;;;6.10;;
64520;SDS011;50896;46.714;17.322;2024-02-15T05:41:40;13.60;;;7.50;;
64520;SDS011;50896;46.714;17.322;2024-02-15T05:44:07;14.90;;;7.50;;
64520;SDS011;50896;46.714;17.322;2024-02-15T05:46:35;16.38;;;7.80;;
64520;SDS011;50896;46.714;17.322;2024-02-15T05:49:04;14.40;;;8.27;;
64520;SDS011;50896;46.714;17.322;2024-02-15T05:51:32;15.98;;;7.95;;
64520;SDS011;50896;46.714;17.322;2024-02-15T05:54:00;16.05;;;8.77;;
64520;SDS011;50896;46.714;17.322;2024-02-15T05:56:27;15.27;;;9.02;;
64520;SDS011;50896;46.714;17.322;2024-02-15T05:58:56;20.33;;;12.00;;
64520;SDS011;50896;46.714;17.322;2024-02-15T06:01:23;25.02;;;16.10;;
64520;SDS011;50896;46.714;17.322;2024-02-15T06:03:51;17.33;;;10.23;;
64520;SDS011;50896;46.714;17.322;2024-02-15T06:06:21;18.52;;;10.75;;
64520;SDS011;50896;46.714;17.322;2024-02-15T06:08:50;20.75;;;12.93;;
64520;SDS011;50896;46.714;17.322;2024-02-15T06:11:19;19.17;;;10.25;;
64520;SDS011;50896;46.714;17.322;2024-02-15T06:13:49;15.25;;;8.82;;
64520;SDS011;50896;46.714;17.322;2024-02-15T06:16:16;14.18;;;8.55;;
64520;SDS011;50896;46.714;17.322;2024-02-15T06:18:43;14.40;;;8.93;;
64520;SDS011;50896;46.714;17.322;2024-02-15T06:21:10;14.82;;;8.70;;
64520;SDS011;50896;46.714;17.322;2024-02-15T06:23:37;13.95;;;8.82;;
64520;SDS011;50896;46.714;17.322;2024-02-15T06:26:04;17.83;;;9.23;;
64520;SDS011;50896;46.714;17.322;2024-02-15T06:28:31;19.27;;;11.50;;
64520;SDS011;50896;46.714;17.322;2024-02-15T06:31:17;18.60;;;10.15;;
64520;SDS011;50896;46.714;17.322;2024-02-15T06:34:02;19.45;;;9.63;;
64520;SDS011;50896;46.714;17.322;2024-02-15T06:36:49;15.25;;;8.85;;
64520;SDS011;50896;46.714;17.322;2024-02-15T06:39:35;13.57;;;8.43;;
64520;SDS011;50896;46.714;17.322;2024-02-15T06:42:09;15.38;;;8.07;;
64520;SDS011;50896;46.714;17.322;2024-02-15T06:44:43;15.45;;;9.02;;
64520;SDS011;50896;46.714;17.322;2024-02-15T06:47:11;15.40;;;8.52;;
64520;SDS011;50896;46.714;17.322;2024-02-15T06:49:39;12.88;;;8.52;;
64520;SDS011;50896;46.714;17.322;2024-02-15T06:52:07;16.23;;;9.00;;
64520;SDS011;50896;46.714;17.322;2024-02-15T06:54:34;18.35;;;8.95;;
64520;SDS011;50896;46.714;17.322;2024-02-15T06:57:05;16.25;;;9.50;;
64520;SDS011;50896;46.714;17.322;2024-02-15T06:59:32;17.23;;;10.05;;
64520;SDS011;50896;46.714;17.322;2024-02-15T07:02:00;17.73;;;9.80;;
64520;SDS011;50896;46.714;17.322;2024-02-15T07:04:27;18.23;;;10.13;;
64520;SDS011;50896;46.714;17.322;2024-02-15T07:06:54;13.88;;;8.88;;
64520;SDS011;50896;46.714;17.322;2024-02-15T07:09:22;14.02;;;8.93;;
64520;SDS011;50896;46.714;17.322;2024-02-15T07:11:51;16.90;;;8.95;;
64520;SDS011;50896;46.714;17.322;2024-02-15T07:14:19;14.73;;;8.75;;
64520;SDS011;50896;46.714;17.322;2024-02-15T07:16:47;16.75;;;8.93;;
64520;SDS011;50896;46.714;17.322;2024-02-15T07:19:14;14.65;;;8.50;;
64520;SDS011;50896;46.714;17.322;2024-02-15T07:21:42;16.20;;;9.40;;
64520;SDS011;50896;46.714;17.322;2024-02-15T07:24:10;17.33;;;9.35;;
64520;SDS011;50896;46.714;17.322;2024-02-15T07:26:37;19.25;;;10.13;;
64520;SDS011;50896;46.714;17.322;2024-02-15T07:29:06;15.05;;;9.93;;
64520;SDS011;50896;46.714;17.322;2024-02-15T07:31:34;16.73;;;10.02;;
64520;SDS011;50896;46.714;17.322;2024-02-15T07:34:02;15.70;;;8.82;;
64520;SDS011;50896;46.714;17.322;2024-02-15T07:36:30;18.38;;;9.02;;
64520;SDS011;50896;46.714;17.322;2024-02-15T07:38:57;16.42;;;8.60;;
64520;SDS011;50896;46.714;17.322;2024-02-15T07:41:30;13.82;;;7.97;;
64520;SDS011;50896;46.714;17.322;2024-02-15T07:44:00;16.17;;;8.73;;
64520;SDS011;50896;46.714;17.322;2024-02-15T07:46:27;17.20;;;9.20;;
64520;SDS011;50896;46.714;17.322;2024-02-15T07:48:55;16.83;;;8.98;;
64520;SDS011;50896;46.714;17.322;2024-02-15T07:51:23;12.85;;;8.05;;
64520;SDS011;50896;46.714;17.322;2024-02-15T07:53:51;16.25;;;8.40;;
64520;SDS011;50896;46.714;17.322;2024-02-15T07:56:18;16.30;;;8.15;;
64520;SDS011;50896;46.714;17.322;2024-02-15T07:58:48;14.68;;;7.88;;
64520;SDS011;50896;46.714;17.322;2024-02-15T08:01:19;13.30;;;7.38;;
64520;SDS011;50896;46.714;17.322;2024-02-15T08:03:51;12.02;;;7.30;;
64520;SDS011;50896;46.714;17.322;2024-02-15T08:06:22;12.35;;;8.32;;
64520;SDS011;50896;46.714;17.322;2024-02-15T08:08:55;14.75;;;7.78;;
64520;SDS011;50896;46.714;17.322;2024-02-15T08:11:22;12.25;;;7.72;;
64520;SDS011;50896;46.714;17.322;2024-02-15T08:13:50;11.63;;;7.55;;
64520;SDS011;50896;46.714;17.322;2024-02-15T08:16:22;11.55;;;7.45;;
64520;SDS011;50896;46.714;17.322;2024-02-15T08:18:50;16.00;;;7.70;;
64520;SDS011;50896;46.714;17.322;2024-02-15T08:21:25;14.88;;;7.93;;
64520;SDS011;50896;46.714;17.322;2024-02-15T08:23:57;14.35;;;7.55;;
64520;SDS011;50896;46.714;17.322;2024-02-15T08:26:25;11.15;;;7.53;;
64520;SDS011;50896;46.714;17.322;2024-02-15T08:28:52;13.95;;;7.75;;
64520;SDS011;50896;46.714;17.322;2024-02-15T08:31:20;13.18;;;7.65;;
64520;SDS011;50896;46.714;17.322;2024-02-15T08:33:47;11.88;;;7.88;;
64520;SDS011;50896;46.714;17.322;2024-02-15T08:36:14;12.50;;;7.68;;
64520;SDS011;50896;46.714;17.322;2024-02-15T08:38:41;13.82;;;8.10;;
64520;SDS011;50896;46.714;17.322;2024-02-15T08:41:08;12.07;;;7.72;;
64520;SDS011;50896;46.714;17.322;2024-02-15T08:43:37;16.08;;;7.60;;
64520;SDS011;50896;46.714;17.322;2024-02-15T08:46:08;12.55;;;7.63;;
64520;SDS011;50896;46.714;17.322;2024-02-15T08:48:35;13.15;;;7.28;;
64520;SDS011;50896;46.714;17.322;2024-02-15T08:51:02;10.38;;;6.43;;
64520;SDS011;50896;46.714;17.322;2024-02-15T08:53:30;13.85;;;6.63;;
64520;SDS011;50896;46.714;17.322;2024-02-15T08:55:59;10.50;;;6.70;;
64520;SDS011;50896;46.714;17.322;2024-02-15T08:58:26;10.50;;;6.90;;
64520;SDS011;50896;46.714;17.322;2024-02-15T09:00:53;13.18;;;6.57;;
64520;SDS011;50896;46.714;17.322;2024-02-15T09:03:21;10.88;;;6.80;;
64520;SDS011;50896;46.714;17.322;2024-02-15T09:05:48;10.60;;;6.65;;
64520;SDS011;50896;46.714;17.322;2024-02-15T09:08:15;13.05;;;7.00;;
64520;SDS011;50896;46.714;17.322;2024-02-15T09:10:48;13.68;;;7.20;;
64520;SDS011;50896;46.714;17.322;2024-02-15T09:13:16;13.60;;;6.90;;
64520;SDS011;50896;46.714;17.322;2024-02-15T09:15:43;12.82;;;7.00;;
64520;SDS011;50896;46.714;17.322;2024-02-15T09:18:10;13.40;;;7.00;;
64520;SDS011;50896;46.714;17.322;2024-02-15T09:20:37;11.52;;;6.70;;
64520;SDS011;50896;46.714;17.322;2024-02-15T09:23:06;11.73;;;6.55;;
64520;SDS011;50896;46.714;17.322;2024-02-15T09:25:39;11.23;;;6.95;;
64520;SDS011;50896;46.714;17.322;2024-02-15T09:28:06;11.13;;;7.00;;
64520;SDS011;50896;46.714;17.322;2024-02-15T09:30:33;11.35;;;7.03;;
64520;SDS011;50896;46.714;17.322;2024-02-15T09:33:02;11.45;;;7.47;;
64520;SDS011;50896;46.714;17.322;2024-02-15T09:35:32;11.80;;;7.55;;
64520;SDS011;50896;46.714;17.322;2024-02-15T09:38:03;12.77;;;7.35;;
64520;SDS011;50896;46.714;17.322;2024-02-15T09:40:32;11.65;;;6.82;;
64520;SDS011;50896;46.714;17.322;2024-02-15T09:43:01;10.90;;;7.18;;
64520;SDS011;50896;46.714;17.322;2024-02-15T09:45:27;14.25;;;7.20;;
64520;SDS011;50896;46.714;17.322;2024-02-15T09:47:59;12.25;;;7.10;;
64520;SDS011;50896;46.714;17.322;2024-02-15T09:50:37;11.38;;;7.20;;
64520;SDS011;50896;46.714;17.322;2024-02-15T09:53:09;16.58;;;7.68;;
64520;SDS011;50896;46.714;17.322;2024-02-15T09:55:36;12.25;;;7.43;;
64520;SDS011;50896;46.714;17.322;2024-02-15T09:58:08;12.30;;;7.80;;
64520;SDS011;50896;46.714;17.322;2024-02-15T10:00:36;11.98;;;7.70;;
64520;SDS011;50896;46.714;17.322;2024-02-15T10:03:03;10.18;;;6.75;;
64520;SDS011;50896;46.714;17.322;2024-02-15T10:05:32;13.88;;;7.18;;
64520;SDS011;50896;46.714;17.322;2024-02-15T10:08:00;10.57;;;7.30;;
64520;SDS011;50896;46.714;17.322;2024-02-15T10:10:27;13.30;;;8.00;;
64520;SDS011;50896;46.714;17.322;2024-02-15T10:12:54;12.68;;;7.28;;
64520;SDS011;50896;46.714;17.322;2024-02-15T10:15:32;12.18;;;7.43;;
64520;SDS011;50896;46.714;17.322;2024-02-15T10:18:05;16.67;;;7.80;;
64520;SDS011;50896;46.714;17.322;2024-02-15T10:20:39;13.73;;;7.15;;
64520;SDS011;50896;46.714;17.322;2024-02-15T10:25:38;11.30;;;6.85;;
64520;SDS011;50896;46.714;17.322;2024-02-15T10:28:09;13.15;;;7.20;;
64520;SDS011;50896;46.714;17.322;2024-02-15T10:30:38;13.13;;;7.10;;
64520;SDS011;50896;46.714;17.322;2024-02-15T10:33:06;10.75;;;6.90;;
64520;SDS011;50896;46.714;17.322;2024-02-15T10:35:34;12.43;;;7.20;;
64520;SDS011;50896;46.714;17.322;2024-02-15T10:38:10;11.95;;;7.35;;
64520;SDS011;50896;46.714;17.322;2024-02-15T10:40:42;14.57;;;6.77;;
64520;SDS011;50896;46.714;17.322;2024-02-15T10:43:10;11.60;;;6.85;;
64520;SDS011;50896;46.714;17.322;2024-02-15T10:45:40;12.48;;;7.00;;
64520;SDS011;50896;46.714;17.322;2024-02-15T10:48:11;13.25;;;6.55;;
64520;SDS011;50896;46.714;17.322;2024-02-15T10:50:40;11.48;;;6.80;;
64520;SDS011;50896;46.714;17.322;2024-02-15T10:53:26;11.95;;;6.53;;
64520;SDS011;50896;46.714;17.322;2024-02-15T10:56:05;10.85;;;6.82;;
64520;SDS011;50896;46.714;17.322;2024-02-15T10:58:51;10.32;;;6.78;;
64520;SDS011;50896;46.714;17.322;2024-02-15T11:01:26;9.98;;;6.38;;
64520;SDS011;50896;46.714;17.322;2024-02-15T11:03:57;14.45;;;6.85;;
64520;SDS011;50896;46.714;17.322;2024-02-15T11:06:26;13.40;;;5.93;;
64520;SDS011;50896;46.714;17.322;2024-02-15T11:08:56;12.13;;;6.65;;
64520;SDS011;50896;46.714;17.322;2024-02-15T11:11:25;9.75;;;6.18;;
64520;SDS011;50896;46.714;17.322;2024-02-15T11:17:02;8.93;;;5.93;;
64520;SDS011;50896;46.714;17.322;2024-02-15T11:21:58;10.23;;;6.00;;
64520;SDS011;50896;46.714;17.322;2024-02-15T11:24:33;10.85;;;5.90;;
64520;SDS011;50896;46.714;17.322;2024-02-15T11:27:04;11.05;;;5.75;;
64520;SDS011;50896;46.714;17.322;2024-02-15T11:35:15;7.40;;;5.35;;
64520;SDS011;50896;46.714;17.322;2024-02-15T11:40:18;9.55;;;5.57;;
64520;SDS011;50896;46.714;17.322;2024-02-15T11:42:49;8.30;;;5.47;;
64520;SDS011;50896;46.714;17.322;2024-02-15T11:45:19;10.05;;;5.25;;
64520;SDS011;50896;46.714;17.322;2024-02-15T11:47:48;8.63;;;5.25;;
64520;SDS011;50896;46.714;17.322;2024-02-15T11:50:18;11.48;;;5.72;;
64520;SDS011;50896;46.714;17.322;2024-02-15T11:52:47;9.52;;;5.30;;
64520;SDS011;50896;46.714;17.322;2024-02-15T11:55:19;11.10;;;5.05;;
64520;SDS011;50896;46.714;17.322;2024-02-15T12:00:28;10.15;;;4.88;;
64520;SDS011;50896;46.714;17.322;2024-02-15T12:03:14;11.45;;;4.88;;
64520;SDS011;50896;46.714;17.322;2024-02-15T12:06:02;8.27;;;5.00;;
64520;SDS011;50896;46.714;17.322;2024-02-15T12:08:50;8.20;;;4.65;;
64520;SDS011;50896;46.714;17.322;2024-02-15T12:11:37;8.48;;;5.20;;
64520;SDS011;50896;46.714;17.322;2024-02-15T12:14:23;10.10;;;4.60;;
64520;SDS011;50896;46.714;17.322;2024-02-15T12:17:11;8.05;;;4.35;;
64520;SDS011;50896;46.714;17.322;2024-02-15T12:19:59;10.65;;;4.78;;
64520;SDS011;50896;46.714;17.322;2024-02-15T12:22:31;9.50;;;4.63;;
64520;SDS011;50896;46.714;17.322;2024-02-15T12:25:02;7.40;;;4.57;;
64520;SDS011;50896;46.714;17.322;2024-02-15T12:27:39;6.97;;;4.53;;
64520;SDS011;50896;46.714;17.322;2024-02-15T12:30:14;7.57;;;4.13;;
64520;SDS011;50896;46.714;17.322;2024-02-15T12:32:42;8.00;;;4.28;;
64520;SDS011;50896;46.714;17.322;2024-02-15T12:35:14;6.90;;;4.53;;
64520;SDS011;50896;46.714;17.322;2024-02-15T12:40:29;9.95;;;5.05;;
64520;SDS011;50896;46.714;17.322;2024-02-15T12:43:00;10.20;;;4.65;;
64520;SDS011;50896;46.714;17.322;2024-02-15T12:45:28;7.88;;;5.10;;
64520;SDS011;50896;46.714;17.322;2024-02-15T12:47:56;9.63;;;5.45;;
64520;SDS011;50896;46.714;17.322;2024-02-15T12:50:28;9.48;;;5.47;;
64520;SDS011;50896;46.714;17.322;2024-02-15T12:52:55;9.55;;;5.43;;
64520;SDS011;50896;46.714;17.322;2024-02-15T12:55:29;12.00;;;5.78;;
64520;SDS011;50896;46.714;17.322;2024-02-15T12:58:04;9.35;;;5.38;;
64520;SDS011;50896;46.714;17.322;2024-02-15T13:00:35;9.02;;;5.70;;
64520;SDS011;50896;46.714;17.322;2024-02-15T13:03:09;10.82;;;5.95;;
64520;SDS011;50896;46.714;17.322;2024-02-15T13:05:38;12.75;;;5.72;;
64520;SDS011;50896;46.714;17.322;2024-02-15T13:08:06;10.18;;;5.68;;
64520;SDS011;50896;46.714;17.322;2024-02-15T13:10:37;8.95;;;5.97;;
64520;SDS011;50896;46.714;17.322;2024-02-15T13:13:06;11.48;;;5.93;;
64520;SDS011;50896;46.714;17.322;2024-02-15T13:18:04;10.70;;;5.95;;
64520;SDS011;50896;46.714;17.322;2024-02-15T13:20:32;10.07;;;5.82;;
64520;SDS011;50896;46.714;17.322;2024-02-15T13:23:00;12.23;;;6.28;;
64520;SDS011;50896;46.714;17.322;2024-02-15T13:25:49;13.52;;;6.57;;
64520;SDS011;50896;46.714;17.322;2024-02-15T13:28:19;10.93;;;6.30;;
64520;SDS011;50896;46.714;17.322;2024-02-15T13:30:46;10.65;;;6.45;;
64520;SDS011;50896;46.714;17.322;2024-02-15T13:33:15;8.65;;;6.00;;
64520;SDS011;50896;46.714;17.322;2024-02-15T13:35:43;10.73;;;6.38;;
64520;SDS011;50896;46.714;17.322;2024-02-15T13:38:11;8.98;;;6.78;;
64520;SDS011;50896;46.714;17.322;2024-02-15T13:40:42;16.55;;;7.03;;
64520;SDS011;50896;46.714;17.322;2024-02-15T13:43:09;12.80;;;6.90;;
64520;SDS011;50896;46.714;17.322;2024-02-15T13:45:40;11.30;;;6.63;;
64520;SDS011;50896;46.714;17.322;2024-02-15T13:48:08;10.27;;;6.35;;
64520;SDS011;50896;46.714;17.322;2024-02-15T13:50:36;11.32;;;6.22;;
64520;SDS011;50896;46.714;17.322;2024-02-15T13:53:05;12.03;;;6.77;;
64520;SDS011;50896;46.714;17.322;2024-02-15T13:55:33;9.35;;;6.30;;
64520;SDS011;50896;46.714;17.322;2024-02-15T13:58:00;13.20;;;7.15;;
64520;SDS011;50896;46.714;17.322;2024-02-15T14:00:28;11.25;;;6.38;;
64520;SDS011;50896;46.714;17.322;2024-02-15T14:03:01;11.23;;;5.57;;
64520;SDS011;50896;46.714;17.322;2024-02-15T14:05:30;10.65;;;6.40;;
64520;SDS011;50896;46.714;17.322;2024-02-15T14:07:58;10.65;;;6.18;;
64520;SDS011;50896;46.714;17.322;2024-02-15T14:10:30;8.23;;;5.60;;
64520;SDS011;50896;46.714;17.322;2024-02-15T14:12:58;10.23;;;5.80;;
64520;SDS011;50896;46.714;17.322;2024-02-15T14:15:26;10.15;;;6.38;;
64520;SDS011;50896;46.714;17.322;2024-02-15T14:17:54;9.57;;;5.85;;
64520;SDS011;50896;46.714;17.322;2024-02-15T14:20:22;10.10;;;6.43;;
64520;SDS011;50896;46.714;17.322;2024-02-15T14:22:50;12.82;;;6.32;;
64520;SDS011;50896;46.714;17.322;2024-02-15T14:25:31;9.38;;;6.07;;
64520;SDS011;50896;46.714;17.322;2024-02-15T14:27:59;9.88;;;5.60;;
64520;SDS011;50896;46.714;17.322;2024-02-15T14:30:26;10.93;;;6.13;;
64520;SDS011;50896;46.714;17.322;2024-02-15T14:33:11;8.88;;;6.10;;
64520;SDS011;50896;46.714;17.322;2024-02-15T14:35:48;9.40;;;5.90;;
64520;SDS011;50896;46.714;17.322;2024-02-15T14:38:16;10.55;;;5.80;;
64520;SDS011;50896;46.714;17.322;2024-02-15T14:40:47;9.07;;;6.00;;
64520;SDS011;50896;46.714;17.322;2024-02-15T14:43:21;11.02;;;6.30;;
64520;SDS011;50896;46.714;17.322;2024-02-15T14:45:48;11.43;;;6.20;;
64520;SDS011;50896;46.714;17.322;2024-02-15T14:48:16;10.65;;;6.32;;
64520;SDS011;50896;46.714;17.322;2024-02-15T14:50:45;8.25;;;5.80;;
64520;SDS011;50896;46.714;17.322;2024-02-15T14:53:13;8.93;;;6.47;;
64520;SDS011;50896;46.714;17.322;2024-02-15T14:55:42;10.52;;;6.20;;
64520;SDS011;50896;46.714;17.322;2024-02-15T14:58:13;10.25;;;6.10;;
64520;SDS011;50896;46.714;17.322;2024-02-15T15:00:41;10.63;;;7.47;;
64520;SDS011;50896;46.714;17.322;2024-02-15T15:03:10;13.23;;;7.38;;
64520;SDS011;50896;46.714;17.322;2024-02-15T15:05:41;12.02;;;6.97;;